Time;durP1;ratioP1;P1;durP2;ratioP2;P2;SDS_P1;SDS_P2;PMS_P1;PMS_P2;Temp;Humidity;BMP_temperature;BMP_pressure;BME280_temperature;BME280_humidity;BME280_pressure;Samples;Min_cycle;Max_cycle;Signal;HPM_P1;HPM_P2
2021/10/08 00:11:05;;;;;;;20.60;11.03;;;;;;;7.24;85.16;102147.54;712755;1202;114853;-76
2021/10/08 00:26:07;;;;;;;21.70;8.63;;;;;;;7.12;85.00;102162.81;713061;1202;115121;-77
2021/10/08 00:41:10;;;;;;;15.80;7.70;;;;;;;7.03;85.37;102168.44;713159;1206;112764;-77
2021/10/08 00:56:17;;;;;;;13.63;7.03;;;;;;;6.79;85.47;102167.73;712867;1203;113958;-77
2021/10/08 01:11:20;;;;;;;13.87;7.20;;;;;;;6.57;86.30;102170.38;712470;1202;114430;-76
2021/10/08 01:26:22;;;;;;;28.93;11.30;;;;;;;6.41;87.15;102186.64;712796;1203;113975;-76
2021/10/08 01:41:24;;;;;;;30.77;11.70;;;;;;;6.08;88.76;102184.45;712744;1180;114611;-76
2021/10/08 01:56:28;;;;;;;28.10;12.30;;;;;;;5.94;89.53;102184.97;712572;1181;114354;-77
2021/10/08 02:11:30;;;;;;;35.68;13.83;;;;;;;5.73;89.60;102177.95;712839;1202;115162;-77
2021/10/08 02:26:33;;;;;;;19.30;8.37;;;;;;;5.70;90.05;102181.55;712560;1181;114031;-77
2021/10/08 02:41:35;;;;;;;14.48;8.53;;;;;;;5.69;89.78;102177.24;712819;1202;114728;-78
2021/10/08 02:56:37;;;;;;;16.90;7.05;;;;;;;5.58;90.68;102189.80;712738;1202;114279;-79
2021/10/08 03:11:39;;;;;;;17.13;7.23;;;;;;;5.56;90.64;102199.44;712692;1205;114321;-84
2021/10/08 03:26:41;;;;;;;17.67;6.90;;;;;;;5.46;90.46;102209.31;712903;1205;115155;-73
2021/10/08 03:41:43;;;;;;;14.60;6.20;;;;;;;5.31;90.53;102236.74;716298;1205;114425;-72
2021/10/08 03:56:46;;;;;;;17.80;7.27;;;;;;;5.19;90.51;102250.16;712445;1206;114982;-74
2021/10/08 04:11:49;;;;;;;14.40;6.33;;;;;;;5.03;89.98;102263.70;712499;1202;115165;-74
2021/10/08 04:26:51;;;;;;;10.97;6.47;;;;;;;4.93;91.15;102270.94;712673;1202;114338;-75
2021/10/08 04:41:53;;;;;;;16.40;6.85;;;;;;;4.76;90.32;102284.48;712733;1203;114877;-74
2021/10/08 04:56:55;;;;;;;12.43;6.75;;;;;;;4.54;91.91;102304.25;712818;1202;115246;-74
2021/10/08 05:11:58;;;;;;;23.30;9.80;;;;;;;4.45;92.38;102316.64;712587;1202;114195;-74
2021/10/08 05:26:59;;;;;;;41.80;19.95;;;;;;;4.48;92.76;102333.89;712885;1205;115119;-75
2021/10/08 05:42:02;;;;;;;24.70;12.05;;;;;;;4.62;93.03;102349.93;712604;1203;114667;-74
2021/10/08 05:57:07;;;;;;;39.73;14.65;;;;;;;4.83;92.21;102364.03;712648;1205;114847;-74
2021/10/08 06:12:09;;;;;;;38.38;16.18;;;;;;;5.31;92.70;102377.28;712738;1203;114432;-74
2021/10/08 06:27:12;;;;;;;25.63;10.47;;;;;;;6.39;90.29;102386.62;712481;1202;115411;-72
2021/10/08 06:42:15;;;;;;;28.65;13.60;;;;;;;7.18;87.54;102390.56;712792;1202;114352;-78
2021/10/08 06:57:18;;;;;;;35.15;13.95;;;;;;;7.81;83.77;102396.66;712711;1180;114111;-78
2021/10/08 07:12:20;;;;;;;35.53;15.50;;;;;;;8.62;81.47;102403.61;712726;1183;114022;-79
2021/10/08 07:27:23;;;;;;;31.63;15.47;;;;;;;9.64;79.78;102431.00;713196;1202;115483;-87
2021/10/08 07:42:26;;;;;;;40.60;14.17;;;;;;;10.65;76.78;102431.10;713391;1203;114674;-76
2021/10/08 07:57:28;;;;;;;33.83;15.83;;;;;;;11.42;74.36;102441.73;712723;1203;114341;-77
2021/10/08 08:12:31;;;;;;;26.85;11.33;;;;;;;12.13;70.29;102448.13;713311;1203;115010;-76
2021/10/08 08:27:34;;;;;;;23.63;11.50;;;;;;;12.72;67.53;102458.55;713929;1180;115059;-77
2021/10/08 08:42:37;;;;;;;16.20;8.30;;;;;;;13.95;66.69;102464.69;713783;1202;115612;-84
2021/10/08 08:57:39;;;;;;;27.73;14.07;;;;;;;14.52;64.01;102468.67;714823;1203;115303;-86
2021/10/08 09:12:43;;;;;;;21.30;11.55;;;;;;;15.46;61.66;102459.27;713648;1203;114840;-85
2021/10/08 09:27:50;;;;;;;22.10;8.83;;;;;;;16.41;58.30;102468.86;713487;1203;115282;-87
2021/10/08 09:43:08;;;;;;;15.40;6.73;;;;;;;16.83;56.65;102457.63;713833;1202;114170;-88
2021/10/08 09:58:11;;;;;;;12.10;5.97;;;;;;;17.37;53.96;102461.23;716207;1203;115427;-85
2021/10/08 10:13:14;;;;;;;12.13;6.03;;;;;;;17.30;49.37;102462.69;718833;1208;114813;-84
2021/10/08 10:28:17;;;;;;;14.77;5.77;;;;;;;17.85;49.42;102448.44;715860;1205;115105;-83
2021/10/08 10:43:19;;;;;;;12.77;4.63;;;;;;;18.02;47.63;102452.34;714340;1202;116103;-84
2021/10/08 10:58:21;;;;;;;15.63;5.03;;;;;;;18.67;46.95;102439.56;714287;1203;113873;-86
2021/10/08 11:13:30;;;;;;;13.75;5.70;;;;;;;18.87;46.73;102439.60;714638;1202;114057;-84
2021/10/08 11:28:51;;;;;;;12.20;5.60;;;;;;;19.01;46.64;102428.59;715366;1205;114589;-83
2021/10/08 11:44:15;;;;;;;11.00;4.80;;;;;;;18.85;44.76;102414.98;714106;1205;115516;-83
2021/10/08 11:59:17;;;;;;;13.30;5.25;;;;;;;19.24;44.06;102407.03;714282;1203;115412;-84
2021/10/08 12:14:20;;;;;;;12.37;5.40;;;;;;;19.78;44.33;102407.36;713000;1202;115232;-83
2021/10/08 12:29:22;;;;;;;13.70;4.98;;;;;;;19.91;43.93;102407.08;712424;1188;114332;-83
2021/10/08 12:44:31;;;;;;;11.28;5.78;;;;;;;20.58;43.49;102398.90;712478;1206;114793;-82
2021/10/08 12:59:48;;;;;;;13.30;6.20;;;;;;;20.97;42.87;102400.47;712341;1180;113870;-74
2021/10/08 13:14:50;;;;;;;13.35;5.70;;;;;;;21.51;41.95;102387.05;712231;1202;114816;-75
2021/10/08 13:29:52;;;;;;;12.15;6.48;;;;;;;31.77;39.15;102368.75;712294;1203;114377;-75
2021/10/08 13:44:54;;;;;;;11.30;5.85;;;;;;;32.25;35.39;102353.52;712512;1203;113777;-72
2021/10/08 13:59:56;;;;;;;16.23;5.20;;;;;;;32.97;34.63;102347.97;712432;1202;113985;-74
2021/10/08 14:14:59;;;;;;;14.20;9.03;;;;;;;33.78;34.97;102341.80;712280;1205;114676;-75
2021/10/08 14:30:04;;;;;;;39.20;18.60;;;;;;;31.82;33.84;102337.16;712969;1202;114749;-75
2021/10/08 14:45:07;;;;;;;77.73;45.10;;;;;;;32.26;34.02;102339.70;712287;1202;114858;-73
2021/10/08 15:00:11;;;;;;;59.68;34.95;;;;;;;25.24;36.55;102328.30;712236;1208;114894;-72
2021/10/08 15:15:13;;;;;;;58.80;29.65;;;;;;;22.27;39.38;102340.02;712815;1203;114264;-81
2021/10/08 15:30:17;;;;;;;70.25;31.83;;;;;;;25.86;38.84;102342.41;713845;1185;114864;-78
2021/10/08 15:45:20;;;;;;;94.63;59.35;;;;;;;23.56;38.47;102349.27;714018;1179;114930;-80
2021/10/08 16:00:23;;;;;;;41.33;19.53;;;;;;;18.34;41.84;102364.52;713924;1181;114283;-79
2021/10/08 16:15:26;;;;;;;199.05;123.45;;;;;;;15.66;45.88;102382.85;713670;1203;114497;-78
2021/10/08 16:30:29;;;;;;;106.50;66.10;;;;;;;14.03;48.94;102406.08;714542;1179;114961;-78
2021/10/08 16:45:34;;;;;;;88.38;53.13;;;;;;;12.86;51.49;102414.68;714610;1180;114375;-80
2021/10/08 17:00:40;;;;;;;331.33;121.63;;;;;;;12.07;53.98;102432.70;714104;1202;114370;-74
2021/10/08 17:15:43;;;;;;;202.05;83.20;;;;;;;11.55;55.01;102436.61;713253;1202;115759;-75
2021/10/08 17:45:49;;;;;;;87.90;35.40;;;;;;;10.75;56.35;102452.44;712590;1202;114507;-73
2021/10/08 18:01:02;;;;;;;87.47;34.73;;;;;;;10.49;57.77;102452.05;712498;1176;115048;-74
2021/10/08 18:16:04;;;;;;;171.10;61.55;;;;;;;9.98;59.65;102460.76;712788;1195;114482;-73
2021/10/08 18:31:07;;;;;;;89.20;37.50;;;;;;;9.33;60.80;102461.34;713395;1202;116034;-73
2021/10/08 18:46:09;;;;;;;177.73;62.23;;;;;;;9.01;62.69;102465.47;713173;1180;113976;-77
2021/10/08 19:01:11;;;;;;;281.40;89.10;;;;;;;8.63;63.85;102479.41;714231;1203;114168;-73
2021/10/08 19:31:22;;;;;;;;;;;;;;;7.77;68.25;102486.55;712776;1202;114154;-74
2021/10/08 19:46:27;;;;;;;440.33;147.87;;;;;;;7.55;69.19;102491.80;712720;1202;101358;-73
2021/10/08 20:01:30;;;;;;;346.87;126.23;;;;;;;7.13;69.91;102485.58;712644;1207;114920;-72
2021/10/08 20:16:33;;;;;;;240.13;88.70;;;;;;;7.12;70.54;102485.64;712632;1202;115823;-74
2021/10/08 20:31:37;;;;;;;56.90;29.20;;;;;;;7.48;69.73;102487.70;712487;1203;116158;-73
2021/10/08 20:46:40;;;;;;;98.17;36.03;;;;;;;7.58;69.12;102485.59;712871;1205;115587;-72
2021/10/08 21:01:42;;;;;;;59.55;21.88;;;;;;;7.44;69.29;102489.62;712827;1202;114624;-73
2021/10/08 21:16:45;;;;;;;99.17;31.53;;;;;;;7.38;69.12;102488.98;712709;1202;115382;-74
2021/10/08 21:31:47;;;;;;;160.10;42.30;;;;;;;7.18;69.64;102500.20;712636;1203;114916;-72
2021/10/08 21:46:49;;;;;;;187.90;52.77;;;;;;;7.07;70.60;102500.63;712529;1203;114584;-72
2021/10/08 22:01:52;;;;;;;97.27;29.27;;;;;;;6.92;70.65;102497.68;712529;1179;115073;-72
2021/10/08 22:16:55;;;;;;;96.60;28.63;;;;;;;6.68;70.99;102503.80;712598;1202;114605;-73
2021/10/08 22:47:20;;;;;;;105.77;26.53;;;;;;;6.54;71.76;102509.52;712439;1203;114481;-74
2021/10/08 23:02:23;;;;;;;118.08;29.08;;;;;;;6.30;72.52;102512.08;712715;1206;114521;-74
2021/10/08 23:17:25;;;;;;;73.17;24.13;;;;;;;6.05;73.59;102506.86;712619;1202;114410;-73
2021/10/08 23:32:28;;;;;;;35.73;15.53;;;;;;;5.73;74.42;102504.38;712700;1205;114019;-73
2021/10/08 23:47:30;;;;;;;44.85;16.85;;;;;;;5.49;75.96;102496.44;712942;1203;114742;-74
